Wednesday, May 23, 2018, 1:06 PM GMT
Back to Local

CWIT, Saint Clothilde Automated Reporting Station

Location: , , Canada Lat: 45.167
Local Time: 1:06 PM GMT (13:06 GMT) Lon: -73.683
Time Zone: GMT Elev: 170 ft

Show me the last for .
Show Coded

Time T Td Feel RH Dir Speed Gust Alt SLP Vis Weather Sky Remarks
2018-05-23 12:00 58 55 - 87 260° 6 - - 29.88 0 None
2018-05-23 11:00 56 54 - 91 260° 7 - - 29.88 0 None
2018-05-23 10:00 56 54 - 94 260° 7 - - 29.87 0 None
2018-05-23 09:00 56 54 - 94 260° 5 - - 29.86 0 None
2018-05-23 08:00 56 53 - 90 270° 2 - - 29.87 0 None
2018-05-23 07:00 56 54 - 94 270° 3 - - 29.86 0 None
2018-05-23 06:00 56 53 - 89 280° 3 - - 29.87 0 None
2018-05-23 05:00 56 55 - 94 260° 2 - - 29.85 0 None
2018-05-23 04:00 56 55 - 96 310° 2 - - 29.85 0 None
2018-05-23 03:00 55 54 - 97 310° 1 - - 29.86 0 None
2018-05-23 02:00 56 55 - 96 - Calm - - 29.86 0 None
2018-05-23 01:00 57 56 - 94 250° 1 - - 29.85 0 None
2018-05-23 00:00 58 56 - 94 140° 3 - - 29.86 0 None
2018-05-22 23:00 58 56 - 94 120° 3 - - 29.89 0 None
2018-05-22 22:00 58 55 - 89 150° 7 - - 29.91 0 None
2018-05-22 21:00 60 56 - 86 170° 7 - - 29.93 0 Peak wind: 19 mph (17 kts) from 180° at 41 min
2018-05-22 20:00 61 55 - 81 150° 9 - - 29.96 0 None
2018-05-22 19:00 65 52 - 61 150° 8 - - 29.98 0 None
2018-05-22 18:00 68 46 - 45 180° 9 - - 30.01 0 None
2018-05-22 17:00 71 47 75 41 240° 9 - - 30.01 0 None
2018-05-22 16:00 74 53 77 48 140° 7 - - 30.00 0 None
2018-05-22 15:00 68 51 - 54 150° 8 - - 30.01 0 None
2018-05-22 14:00 66 53 - 61 120° 3 - - 30.03 0 None

Support USWX by starting your Amazon purchase here.